sensor_id;sensor_type;location;lat;lon;timestamp;P1;durP1;ratioP1;P2;durP2;ratioP2
51971;SDS011;37991;49.662;10.060;2022-10-22T00:00:11;5.15;;;2.70;;
51971;SDS011;37991;49.662;10.060;2022-10-22T00:02:38;12.45;;;2.65;;
51971;SDS011;37991;49.662;10.060;2022-10-22T00:05:04;3.95;;;2.25;;
51971;SDS011;37991;49.662;10.060;2022-10-22T00:07:30;7.07;;;2.30;;
51971;SDS011;37991;49.662;10.060;2022-10-22T00:09:56;6.75;;;2.70;;
51971;SDS011;37991;49.662;10.060;2022-10-22T00:12:21;10.38;;;2.97;;
51971;SDS011;37991;49.662;10.060;2022-10-22T00:14:47;5.40;;;2.55;;
51971;SDS011;37991;49.662;10.060;2022-10-22T00:17:13;5.88;;;2.67;;
51971;SDS011;37991;49.662;10.060;2022-10-22T00:19:39;6.75;;;3.00;;
51971;SDS011;37991;49.662;10.060;2022-10-22T00:22:05;5.15;;;2.90;;
51971;SDS011;37991;49.662;10.060;2022-10-22T00:24:34;9.43;;;3.40;;
51971;SDS011;37991;49.662;10.060;2022-10-22T00:27:01;9.18;;;4.10;;
51971;SDS011;37991;49.662;10.060;2022-10-22T00:29:27;13.40;;;4.05;;
51971;SDS011;37991;49.662;10.060;2022-10-22T00:31:52;9.73;;;4.10;;
51971;SDS011;37991;49.662;10.060;2022-10-22T00:34:18;12.35;;;4.28;;
51971;SDS011;37991;49.662;10.060;2022-10-22T00:36:45;6.15;;;3.70;;
51971;SDS011;37991;49.662;10.060;2022-10-22T00:39:12;7.18;;;4.05;;
51971;SDS011;37991;49.662;10.060;2022-10-22T00:41:43;5.93;;;3.63;;
51971;SDS011;37991;49.662;10.060;2022-10-22T00:47:13;10.20;;;3.95;;
51971;SDS011;37991;49.662;10.060;2022-10-22T00:49:40;8.35;;;4.03;;
51971;SDS011;37991;49.662;10.060;2022-10-22T00:52:05;11.32;;;3.70;;
51971;SDS011;37991;49.662;10.060;2022-10-22T00:54:32;8.95;;;4.07;;
51971;SDS011;37991;49.662;10.060;2022-10-22T00:56:58;6.60;;;4.05;;
51971;SDS011;37991;49.662;10.060;2022-10-22T00:59:24;12.10;;;4.03;;
51971;SDS011;37991;49.662;10.060;2022-10-22T01:01:49;12.93;;;4.28;;
51971;SDS011;37991;49.662;10.060;2022-10-22T01:04:16;13.30;;;4.57;;
51971;SDS011;37991;49.662;10.060;2022-10-22T01:06:43;11.95;;;4.40;;
51971;SDS011;37991;49.662;10.060;2022-10-22T01:09:11;13.02;;;4.50;;
51971;SDS011;37991;49.662;10.060;2022-10-22T01:14:16;13.57;;;4.72;;
51971;SDS011;37991;49.662;10.060;2022-10-22T01:17:00;6.47;;;3.83;;
51971;SDS011;37991;49.662;10.060;2022-10-22T01:22:19;10.95;;;3.88;;
51971;SDS011;37991;49.662;10.060;2022-10-22T01:27:32;6.50;;;3.90;;
51971;SDS011;37991;49.662;10.060;2022-10-22T01:30:08;7.72;;;3.90;;
51971;SDS011;37991;49.662;10.060;2022-10-22T01:32:44;8.50;;;3.55;;
51971;SDS011;37991;49.662;10.060;2022-10-22T01:35:13;9.02;;;4.10;;
51971;SDS011;37991;49.662;10.060;2022-10-22T01:37:44;11.63;;;3.63;;
51971;SDS011;37991;49.662;10.060;2022-10-22T01:40:14;14.75;;;4.00;;
51971;SDS011;37991;49.662;10.060;2022-10-22T01:42:40;7.20;;;4.18;;
51971;SDS011;37991;49.662;10.060;2022-10-22T01:45:09;6.50;;;3.85;;
51971;SDS011;37991;49.662;10.060;2022-10-22T01:47:44;10.85;;;3.83;;
51971;SDS011;37991;49.662;10.060;2022-10-22T01:53:34;9.73;;;3.92;;
51971;SDS011;37991;49.662;10.060;2022-10-22T02:04:11;4.57;;;3.45;;
51971;SDS011;37991;49.662;10.060;2022-10-22T02:06:43;7.15;;;3.65;;
51971;SDS011;37991;49.662;10.060;2022-10-22T02:09:12;6.32;;;3.67;;
51971;SDS011;37991;49.662;10.060;2022-10-22T02:11:40;8.68;;;3.85;;
51971;SDS011;37991;49.662;10.060;2022-10-22T02:14:08;9.70;;;3.30;;
51971;SDS011;37991;49.662;10.060;2022-10-22T02:16:37;5.28;;;3.25;;
51971;SDS011;37991;49.662;10.060;2022-10-22T02:19:09;6.38;;;3.10;;
51971;SDS011;37991;49.662;10.060;2022-10-22T02:21:41;9.55;;;2.95;;
51971;SDS011;37991;49.662;10.060;2022-10-22T02:24:07;4.88;;;2.85;;
51971;SDS011;37991;49.662;10.060;2022-10-22T02:26:34;7.38;;;2.72;;
51971;SDS011;37991;49.662;10.060;2022-10-22T02:29:09;4.40;;;2.35;;
51971;SDS011;37991;49.662;10.060;2022-10-22T02:31:39;6.25;;;2.35;;
51971;SDS011;37991;49.662;10.060;2022-10-22T02:34:09;4.10;;;1.85;;
51971;SDS011;37991;49.662;10.060;2022-10-22T02:36:40;3.67;;;2.17;;
51971;SDS011;37991;49.662;10.060;2022-10-22T02:39:08;5.50;;;2.10;;
51971;SDS011;37991;49.662;10.060;2022-10-22T02:41:35;6.05;;;2.10;;
51971;SDS011;37991;49.662;10.060;2022-10-22T02:44:02;6.10;;;1.77;;
51971;SDS011;37991;49.662;10.060;2022-10-22T02:46:32;12.23;;;1.77;;
51971;SDS011;37991;49.662;10.060;2022-10-22T02:48:58;6.75;;;1.80;;
51971;SDS011;37991;49.662;10.060;2022-10-22T02:51:23;9.07;;;1.80;;
51971;SDS011;37991;49.662;10.060;2022-10-22T02:53:49;6.07;;;1.75;;
51971;SDS011;37991;49.662;10.060;2022-10-22T02:56:14;4.18;;;1.70;;
51971;SDS011;37991;49.662;10.060;2022-10-22T02:58:39;4.18;;;1.35;;
51971;SDS011;37991;49.662;10.060;2022-10-22T03:01:05;8.38;;;1.90;;
51971;SDS011;37991;49.662;10.060;2022-10-22T03:03:30;6.53;;;1.80;;
51971;SDS011;37991;49.662;10.060;2022-10-22T03:05:56;1.67;;;1.30;;
51971;SDS011;37991;49.662;10.060;2022-10-22T03:08:21;5.22;;;1.13;;
51971;SDS011;37991;49.662;10.060;2022-10-22T03:10:46;3.80;;;1.10;;
51971;SDS011;37991;49.662;10.060;2022-10-22T03:13:12;3.65;;;1.27;;
51971;SDS011;37991;49.662;10.060;2022-10-22T03:15:37;3.60;;;1.40;;
51971;SDS011;37991;49.662;10.060;2022-10-22T03:18:02;2.45;;;1.30;;
51971;SDS011;37991;49.662;10.060;2022-10-22T03:20:28;1.77;;;1.00;;
51971;SDS011;37991;49.662;10.060;2022-10-22T03:22:53;2.13;;;1.35;;
51971;SDS011;37991;49.662;10.060;2022-10-22T03:25:20;4.72;;;1.17;;
51971;SDS011;37991;49.662;10.060;2022-10-22T03:27:48;3.63;;;1.10;;
51971;SDS011;37991;49.662;10.060;2022-10-22T03:30:16;2.42;;;1.08;;
51971;SDS011;37991;49.662;10.060;2022-10-22T03:32:42;1.75;;;0.98;;
51971;SDS011;37991;49.662;10.060;2022-10-22T03:35:07;1.75;;;1.33;;
51971;SDS011;37991;49.662;10.060;2022-10-22T03:37:33;1.30;;;1.10;;
51971;SDS011;37991;49.662;10.060;2022-10-22T03:39:59;1.63;;;0.90;;
51971;SDS011;37991;49.662;10.060;2022-10-22T03:42:25;1.33;;;0.90;;
51971;SDS011;37991;49.662;10.060;2022-10-22T03:44:51;1.23;;;1.00;;
51971;SDS011;37991;49.662;10.060;2022-10-22T03:47:16;2.15;;;0.90;;
51971;SDS011;37991;49.662;10.060;2022-10-22T03:49:42;1.45;;;0.88;;
51971;SDS011;37991;49.662;10.060;2022-10-22T03:52:12;1.98;;;0.70;;
51971;SDS011;37991;49.662;10.060;2022-10-22T03:54:38;1.15;;;0.70;;
51971;SDS011;37991;49.662;10.060;2022-10-22T03:57:04;2.20;;;0.82;;
51971;SDS011;37991;49.662;10.060;2022-10-22T03:59:34;5.22;;;0.98;;
51971;SDS011;37991;49.662;10.060;2022-10-22T04:02:01;7.13;;;1.05;;
51971;SDS011;37991;49.662;10.060;2022-10-22T04:04:26;1.42;;;0.93;;
51971;SDS011;37991;49.662;10.060;2022-10-22T04:06:52;1.95;;;0.70;;
51971;SDS011;37991;49.662;10.060;2022-10-22T04:09:17;2.35;;;0.70;;
51971;SDS011;37991;49.662;10.060;2022-10-22T04:11:42;1.45;;;0.95;;
51971;SDS011;37991;49.662;10.060;2022-10-22T04:14:08;1.77;;;0.73;;
51971;SDS011;37991;49.662;10.060;2022-10-22T04:16:35;1.85;;;1.25;;
51971;SDS011;37991;49.662;10.060;2022-10-22T04:19:03;2.15;;;0.70;;
51971;SDS011;37991;49.662;10.060;2022-10-22T04:21:28;0.80;;;0.75;;
51971;SDS011;37991;49.662;10.060;2022-10-22T04:23:54;2.25;;;1.20;;
51971;SDS011;37991;49.662;10.060;2022-10-22T04:26:19;0.77;;;0.60;;
51971;SDS011;37991;49.662;10.060;2022-10-22T04:28:45;7.88;;;1.02;;
51971;SDS011;37991;49.662;10.060;2022-10-22T04:31:13;0.70;;;0.57;;
51971;SDS011;37991;49.662;10.060;2022-10-22T04:33:39;0.70;;;0.68;;
51971;SDS011;37991;49.662;10.060;2022-10-22T04:36:15;5.28;;;0.95;;
51971;SDS011;37991;49.662;10.060;2022-10-22T04:38:42;1.83;;;0.93;;
51971;SDS011;37991;49.662;10.060;2022-10-22T04:41:17;0.68;;;0.63;;
51971;SDS011;37991;49.662;10.060;2022-10-22T04:43:44;1.98;;;0.50;;
51971;SDS011;37991;49.662;10.060;2022-10-22T04:46:11;12.40;;;1.13;;
51971;SDS011;37991;49.662;10.060;2022-10-22T04:48:38;0.88;;;0.60;;
51971;SDS011;37991;49.662;10.060;2022-10-22T04:51:05;5.32;;;0.80;;
51971;SDS011;37991;49.662;10.060;2022-10-22T04:53:32;2.10;;;1.58;;
51971;SDS011;37991;49.662;10.060;2022-10-22T04:56:22;0.98;;;0.60;;
51971;SDS011;37991;49.662;10.060;2022-10-22T04:58:57;1.50;;;0.70;;
51971;SDS011;37991;49.662;10.060;2022-10-22T05:01:28;1.07;;;0.53;;
51971;SDS011;37991;49.662;10.060;2022-10-22T05:03:55;1.33;;;0.70;;
51971;SDS011;37991;49.662;10.060;2022-10-22T05:06:23;0.60;;;0.60;;
51971;SDS011;37991;49.662;10.060;2022-10-22T05:08:52;1.45;;;1.13;;
51971;SDS011;37991;49.662;10.060;2022-10-22T05:11:20;3.22;;;0.70;;
51971;SDS011;37991;49.662;10.060;2022-10-22T05:13:48;1.27;;;0.57;;
51971;SDS011;37991;49.662;10.060;2022-10-22T05:16:14;3.33;;;1.10;;
51971;SDS011;37991;49.662;10.060;2022-10-22T05:18:40;6.68;;;0.93;;
51971;SDS011;37991;49.662;10.060;2022-10-22T05:21:08;1.25;;;0.80;;
51971;SDS011;37991;49.662;10.060;2022-10-22T05:23:35;0.70;;;0.50;;
51971;SDS011;37991;49.662;10.060;2022-10-22T05:26:01;4.30;;;0.75;;
51971;SDS011;37991;49.662;10.060;2022-10-22T05:28:28;0.88;;;0.68;;
51971;SDS011;37991;49.662;10.060;2022-10-22T05:30:54;2.00;;;0.80;;
51971;SDS011;37991;49.662;10.060;2022-10-22T05:33:20;1.80;;;0.90;;
51971;SDS011;37991;49.662;10.060;2022-10-22T05:35:47;1.27;;;0.90;;
51971;SDS011;37991;49.662;10.060;2022-10-22T05:38:15;4.28;;;1.45;;
51971;SDS011;37991;49.662;10.060;2022-10-22T05:40:42;1.52;;;1.17;;
51971;SDS011;37991;49.662;10.060;2022-10-22T05:43:07;2.25;;;1.40;;
51971;SDS011;37991;49.662;10.060;2022-10-22T05:45:36;2.22;;;1.83;;
51971;SDS011;37991;49.662;10.060;2022-10-22T05:48:02;2.58;;;1.70;;
51971;SDS011;37991;49.662;10.060;2022-10-22T05:50:28;4.40;;;1.27;;
51971;SDS011;37991;49.662;10.060;2022-10-22T05:52:54;2.35;;;1.65;;
51971;SDS011;37991;49.662;10.060;2022-10-22T05:55:19;4.57;;;1.80;;
51971;SDS011;37991;49.662;10.060;2022-10-22T05:57:45;2.55;;;1.77;;
51971;SDS011;37991;49.662;10.060;2022-10-22T06:00:10;7.30;;;2.50;;
51971;SDS011;37991;49.662;10.060;2022-10-22T06:02:36;3.03;;;1.90;;
51971;SDS011;37991;49.662;10.060;2022-10-22T06:05:02;3.03;;;2.15;;
51971;SDS011;37991;49.662;10.060;2022-10-22T06:07:27;4.10;;;2.00;;
51971;SDS011;37991;49.662;10.060;2022-10-22T06:09:53;6.38;;;1.40;;
51971;SDS011;37991;49.662;10.060;2022-10-22T06:12:18;3.40;;;1.45;;
51971;SDS011;37991;49.662;10.060;2022-10-22T06:14:43;1.88;;;1.27;;
51971;SDS011;37991;49.662;10.060;2022-10-22T06:17:10;2.50;;;1.50;;
51971;SDS011;37991;49.662;10.060;2022-10-22T06:19:36;4.80;;;1.10;;
51971;SDS011;37991;49.662;10.060;2022-10-22T06:22:02;1.67;;;1.10;;
51971;SDS011;37991;49.662;10.060;2022-10-22T06:24:28;1.67;;;1.00;;
51971;SDS011;37991;49.662;10.060;2022-10-22T06:26:53;4.68;;;1.00;;
51971;SDS011;37991;49.662;10.060;2022-10-22T06:29:19;2.50;;;1.20;;
51971;SDS011;37991;49.662;10.060;2022-10-22T06:31:44;2.63;;;1.00;;
51971;SDS011;37991;49.662;10.060;2022-10-22T06:34:11;1.45;;;1.20;;
51971;SDS011;37991;49.662;10.060;2022-10-22T06:36:37;4.72;;;1.50;;
51971;SDS011;37991;49.662;10.060;2022-10-22T06:39:03;5.30;;;1.35;;
51971;SDS011;37991;49.662;10.060;2022-10-22T06:41:29;8.32;;;1.73;;
51971;SDS011;37991;49.662;10.060;2022-10-22T06:43:55;6.22;;;1.27;;
51971;SDS011;37991;49.662;10.060;2022-10-22T06:46:21;6.90;;;1.33;;
51971;SDS011;37991;49.662;10.060;2022-10-22T06:48:53;5.25;;;1.65;;
51971;SDS011;37991;49.662;10.060;2022-10-22T06:51:20;4.55;;;1.20;;
51971;SDS011;37991;49.662;10.060;2022-10-22T06:53:46;4.70;;;1.33;;
51971;SDS011;37991;49.662;10.060;2022-10-22T06:56:12;2.30;;;1.00;;
51971;SDS011;37991;49.662;10.060;2022-10-22T06:58:40;2.53;;;0.90;;
51971;SDS011;37991;49.662;10.060;2022-10-22T07:01:09;4.40;;;1.00;;
51971;SDS011;37991;49.662;10.060;2022-10-22T07:03:38;0.85;;;0.80;;
51971;SDS011;37991;49.662;10.060;2022-10-22T07:06:05;1.17;;;1.00;;
51971;SDS011;37991;49.662;10.060;2022-10-22T07:08:34;1.63;;;1.02;;
51971;SDS011;37991;49.662;10.060;2022-10-22T07:11:07;2.22;;;1.00;;
51971;SDS011;37991;49.662;10.060;2022-10-22T07:13:33;5.57;;;1.15;;
51971;SDS011;37991;49.662;10.060;2022-10-22T07:15:59;1.17;;;0.82;;
51971;SDS011;37991;49.662;10.060;2022-10-22T07:18:25;4.68;;;1.10;;
51971;SDS011;37991;49.662;10.060;2022-10-22T07:20:50;5.50;;;1.00;;
51971;SDS011;37991;49.662;10.060;2022-10-22T07:23:15;2.50;;;0.93;;
51971;SDS011;37991;49.662;10.060;2022-10-22T07:25:41;1.92;;;0.80;;
51971;SDS011;37991;49.662;10.060;2022-10-22T07:28:07;7.80;;;0.90;;
51971;SDS011;37991;49.662;10.060;2022-10-22T07:30:33;0.77;;;0.65;;
51971;SDS011;37991;49.662;10.060;2022-10-22T07:32:59;6.15;;;0.80;;
51971;SDS011;37991;49.662;10.060;2022-10-22T07:35:25;3.08;;;0.63;;
51971;SDS011;37991;49.662;10.060;2022-10-22T07:37:50;1.27;;;0.43;;
51971;SDS011;37991;49.662;10.060;2022-10-22T07:40:15;1.55;;;0.60;;
51971;SDS011;37991;49.662;10.060;2022-10-22T07:42:41;0.50;;;0.40;;
51971;SDS011;37991;49.662;10.060;2022-10-22T07:45:06;0.40;;;0.40;;
51971;SDS011;37991;49.662;10.060;2022-10-22T07:47:32;3.55;;;0.82;;
51971;SDS011;37991;49.662;10.060;2022-10-22T07:49:58;4.28;;;1.52;;
51971;SDS011;37991;49.662;10.060;2022-10-22T07:52:23;2.30;;;1.05;;
51971;SDS011;37991;49.662;10.060;2022-10-22T07:54:48;1.58;;;0.93;;
51971;SDS011;37991;49.662;10.060;2022-10-22T07:57:14;1.30;;;0.90;;
51971;SDS011;37991;49.662;10.060;2022-10-22T07:59:39;2.92;;;0.60;;
51971;SDS011;37991;49.662;10.060;2022-10-22T08:02:04;3.85;;;0.80;;
51971;SDS011;37991;49.662;10.060;2022-10-22T08:04:30;3.67;;;0.82;;
51971;SDS011;37991;49.662;10.060;2022-10-22T08:06:55;0.93;;;0.73;;
51971;SDS011;37991;49.662;10.060;2022-10-22T08:09:20;4.85;;;0.80;;
51971;SDS011;37991;49.662;10.060;2022-10-22T08:11:46;1.40;;;0.75;;
51971;SDS011;37991;49.662;10.060;2022-10-22T08:14:11;0.75;;;0.45;;
51971;SDS011;37991;49.662;10.060;2022-10-22T08:16:37;0.57;;;0.57;;
51971;SDS011;37991;49.662;10.060;2022-10-22T08:19:02;4.15;;;0.90;;
51971;SDS011;37991;49.662;10.060;2022-10-22T08:21:28;0.50;;;0.40;;
51971;SDS011;37991;49.662;10.060;2022-10-22T08:23:53;0.50;;;0.50;;
51971;SDS011;37991;49.662;10.060;2022-10-22T08:26:18;0.50;;;0.50;;
51971;SDS011;37991;49.662;10.060;2022-10-22T08:28:44;0.68;;;0.38;;
51971;SDS011;37991;49.662;10.060;2022-10-22T08:31:09;0.43;;;0.40;;
51971;SDS011;37991;49.662;10.060;2022-10-22T08:33:35;0.30;;;0.30;;
51971;SDS011;37991;49.662;10.060;2022-10-22T08:36:02;2.85;;;0.60;;
51971;SDS011;37991;49.662;10.060;2022-10-22T08:38:29;0.93;;;0.60;;
51971;SDS011;37991;49.662;10.060;2022-10-22T08:48:54;3.42;;;0.60;;
51971;SDS011;37991;49.662;10.060;2022-10-22T08:51:22;4.72;;;0.75;;
51971;SDS011;37991;49.662;10.060;2022-10-22T08:56:42;4.63;;;0.60;;
51971;SDS011;37991;49.662;10.060;2022-10-22T09:01:45;0.73;;;0.50;;
51971;SDS011;37991;49.662;10.060;2022-10-22T09:04:15;0.60;;;0.57;;
51971;SDS011;37991;49.662;10.060;2022-10-22T09:06:49;1.35;;;0.45;;
51971;SDS011;37991;49.662;10.060;2022-10-22T09:09:16;0.40;;;0.40;;
51971;SDS011;37991;49.662;10.060;2022-10-22T09:11:45;0.50;;;0.50;;
51971;SDS011;37991;49.662;10.060;2022-10-22T09:14:19;1.00;;;0.85;;
51971;SDS011;37991;49.662;10.060;2022-10-22T09:17:00;1.40;;;0.52;;
51971;SDS011;37991;49.662;10.060;2022-10-22T09:25:24;1.05;;;0.65;;
51971;SDS011;37991;49.662;10.060;2022-10-22T09:27:52;1.10;;;0.63;;
51971;SDS011;37991;49.662;10.060;2022-10-22T09:30:23;3.00;;;0.90;;
51971;SDS011;37991;49.662;10.060;2022-10-22T09:32:51;0.40;;;0.40;;
51971;SDS011;37991;49.662;10.060;2022-10-22T09:35:24;1.40;;;0.50;;
51971;SDS011;37991;49.662;10.060;2022-10-22T09:37:52;1.42;;;0.60;;
51971;SDS011;37991;49.662;10.060;2022-10-22T09:40:19;1.02;;;0.68;;
51971;SDS011;37991;49.662;10.060;2022-10-22T09:42:45;1.58;;;0.82;;
51971;SDS011;37991;49.662;10.060;2022-10-22T09:45:29;0.95;;;0.70;;
51971;SDS011;37991;49.662;10.060;2022-10-22T09:50:42;1.27;;;0.60;;
51971;SDS011;37991;49.662;10.060;2022-10-22T09:53:11;0.68;;;0.60;;
51971;SDS011;37991;49.662;10.060;2022-10-22T09:55:41;1.27;;;0.80;;
51971;SDS011;37991;49.662;10.060;2022-10-22T09:58:11;2.67;;;0.77;;
51971;SDS011;37991;49.662;10.060;2022-10-22T10:00:43;1.30;;;1.00;;
51971;SDS011;37991;49.662;10.060;2022-10-22T10:03:17;1.80;;;0.60;;
51971;SDS011;37991;49.662;10.060;2022-10-22T10:05:46;1.80;;;0.50;;
51971;SDS011;37991;49.662;10.060;2022-10-22T10:08:14;1.88;;;0.65;;
51971;SDS011;37991;49.662;10.060;2022-10-22T10:10:45;2.95;;;0.45;;
51971;SDS011;37991;49.662;10.060;2022-10-22T10:13:24;3.03;;;0.57;;
51971;SDS011;37991;49.662;10.060;2022-10-22T10:30:19;1.27;;;0.60;;
51971;SDS011;37991;49.662;10.060;2022-10-22T10:44:05;0.65;;;0.65;;
51971;SDS011;37991;49.662;10.060;2022-10-22T10:49:34;1.25;;;0.60;;
51971;SDS011;37991;49.662;10.060;2022-10-22T10:57:44;0.90;;;0.70;;
51971;SDS011;37991;49.662;10.060;2022-10-22T11:00:19;0.55;;;0.55;;
51971;SDS011;37991;49.662;10.060;2022-10-22T11:08:17;4.63;;;1.00;;
51971;SDS011;37991;49.662;10.060;2022-10-22T11:13:33;1.52;;;1.00;;
51971;SDS011;37991;49.662;10.060;2022-10-22T11:16:01;0.70;;;0.70;;
51971;SDS011;37991;49.662;10.060;2022-10-22T11:18:44;2.05;;;1.10;;
51971;SDS011;37991;49.662;10.060;2022-10-22T11:21:27;1.55;;;1.13;;
51971;SDS011;37991;49.662;10.060;2022-10-22T11:26:48;1.75;;;0.80;;
51971;SDS011;37991;49.662;10.060;2022-10-22T11:29:20;1.27;;;0.80;;
51971;SDS011;37991;49.662;10.060;2022-10-22T11:31:49;2.60;;;1.10;;
51971;SDS011;37991;49.662;10.060;2022-10-22T11:34:19;0.70;;;0.70;;
51971;SDS011;37991;49.662;10.060;2022-10-22T11:36:55;0.90;;;0.90;;
51971;SDS011;37991;49.662;10.060;2022-10-22T11:39:29;1.40;;;0.98;;
51971;SDS011;37991;49.662;10.060;2022-10-22T11:41:57;1.17;;;1.00;;
51971;SDS011;37991;49.662;10.060;2022-10-22T11:44:23;2.15;;;1.02;;
51971;SDS011;37991;49.662;10.060;2022-10-22T11:47:07;2.10;;;1.10;;
51971;SDS011;37991;49.662;10.060;2022-10-22T11:52:24;1.02;;;0.90;;
51971;SDS011;37991;49.662;10.060;2022-10-22T11:57:59;1.95;;;1.75;;
51971;SDS011;37991;49.662;10.060;2022-10-22T12:00:39;1.30;;;1.20;;
51971;SDS011;37991;49.662;10.060;2022-10-22T12:03:14;4.13;;;2.50;;
51971;SDS011;37991;49.662;10.060;2022-10-22T12:05:42;2.15;;;1.48;;
51971;SDS011;37991;49.662;10.060;2022-10-22T12:13:21;3.85;;;1.63;;
51971;SDS011;37991;49.662;10.060;2022-10-22T12:15:53;5.15;;;2.50;;
51971;SDS011;37991;49.662;10.060;2022-10-22T12:18:23;5.63;;;3.33;;
51971;SDS011;37991;49.662;10.060;2022-10-22T12:20:51;4.30;;;1.88;;
51971;SDS011;37991;49.662;10.060;2022-10-22T12:23:17;5.07;;;2.25;;
51971;SDS011;37991;49.662;10.060;2022-10-22T12:25:49;2.63;;;1.20;;
51971;SDS011;37991;49.662;10.060;2022-10-22T12:28:14;4.95;;;1.80;;
51971;SDS011;37991;49.662;10.060;2022-10-22T12:30:40;24.75;;;11.50;;
51971;SDS011;37991;49.662;10.060;2022-10-22T12:33:06;2.78;;;1.50;;
51971;SDS011;37991;49.662;10.060;2022-10-22T12:35:42;2.10;;;1.50;;
51971;SDS011;37991;49.662;10.060;2022-10-22T12:38:13;2.60;;;1.02;;
51971;SDS011;37991;49.662;10.060;2022-10-22T12:40:40;1.10;;;0.80;;
51971;SDS011;37991;49.662;10.060;2022-10-22T12:43:12;1.33;;;0.80;;
51971;SDS011;37991;49.662;10.060;2022-10-22T12:45:41;4.25;;;1.17;;
51971;SDS011;37991;49.662;10.060;2022-10-22T12:48:22;1.92;;;0.77;;
51971;SDS011;37991;49.662;10.060;2022-10-22T12:51:07;2.85;;;1.00;;
51971;SDS011;37991;49.662;10.060;2022-10-22T12:53:40;2.95;;;1.15;;
51971;SDS011;37991;49.662;10.060;2022-10-22T12:56:10;2.30;;;1.00;;
51971;SDS011;37991;49.662;10.060;2022-10-22T12:58:42;7.80;;;1.35;;
51971;SDS011;37991;49.662;10.060;2022-10-22T13:01:12;3.75;;;1.38;;
51971;SDS011;37991;49.662;10.060;2022-10-22T13:03:40;3.15;;;1.20;;
51971;SDS011;37991;49.662;10.060;2022-10-22T13:08:42;10.52;;;3.72;;
51971;SDS011;37991;49.662;10.060;2022-10-22T13:11:09;7.47;;;2.20;;
51971;SDS011;37991;49.662;10.060;2022-10-22T13:18:48;9.18;;;2.88;;
51971;SDS011;37991;49.662;10.060;2022-10-22T13:21:21;5.60;;;1.60;;
51971;SDS011;37991;49.662;10.060;2022-10-22T13:24:17;6.68;;;2.08;;
51971;SDS011;37991;49.662;10.060;2022-10-22T13:26:47;4.45;;;1.02;;
51971;SDS011;37991;49.662;10.060;2022-10-22T13:29:15;20.52;;;3.78;;
51971;SDS011;37991;49.662;10.060;2022-10-22T13:31:46;4.65;;;1.50;;
51971;SDS011;37991;49.662;10.060;2022-10-22T13:34:18;6.30;;;0.82;;
51971;SDS011;37991;49.662;10.060;2022-10-22T13:36:45;4.07;;;1.17;;
51971;SDS011;37991;49.662;10.060;2022-10-22T13:39:14;6.90;;;1.90;;
51971;SDS011;37991;49.662;10.060;2022-10-22T13:41:42;5.47;;;1.10;;
51971;SDS011;37991;49.662;10.060;2022-10-22T13:44:07;3.10;;;1.10;;
51971;SDS011;37991;49.662;10.060;2022-10-22T13:46:32;5.35;;;1.00;;
51971;SDS011;37991;49.662;10.060;2022-10-22T13:49:04;5.32;;;1.80;;
51971;SDS011;37991;49.662;10.060;2022-10-22T13:51:33;1.63;;;0.60;;
51971;SDS011;37991;49.662;10.060;2022-10-22T13:53:59;2.78;;;1.10;;
51971;SDS011;37991;49.662;10.060;2022-10-22T13:56:25;2.35;;;1.05;;
51971;SDS011;37991;49.662;10.060;2022-10-22T13:58:51;2.20;;;0.73;;
51971;SDS011;37991;49.662;10.060;2022-10-22T14:01:18;12.07;;;2.42;;
51971;SDS011;37991;49.662;10.060;2022-10-22T14:03:46;15.57;;;3.05;;
51971;SDS011;37991;49.662;10.060;2022-10-22T14:06:14;9.85;;;3.10;;
51971;SDS011;37991;49.662;10.060;2022-10-22T14:08:41;6.45;;;1.92;;
51971;SDS011;37991;49.662;10.060;2022-10-22T14:11:09;1.95;;;1.00;;
51971;SDS011;37991;49.662;10.060;2022-10-22T14:13:36;2.92;;;1.20;;
51971;SDS011;37991;49.662;10.060;2022-10-22T14:16:01;5.30;;;1.45;;
51971;SDS011;37991;49.662;10.060;2022-10-22T14:18:29;7.18;;;2.00;;
51971;SDS011;37991;49.662;10.060;2022-10-22T14:20:58;5.75;;;1.88;;
51971;SDS011;37991;49.662;10.060;2022-10-22T14:23:27;4.18;;;1.20;;
51971;SDS011;37991;49.662;10.060;2022-10-22T14:25:53;2.88;;;0.88;;
51971;SDS011;37991;49.662;10.060;2022-10-22T14:28:19;1.88;;;1.02;;
51971;SDS011;37991;49.662;10.060;2022-10-22T14:30:45;1.23;;;0.55;;
51971;SDS011;37991;49.662;10.060;2022-10-22T14:35:46;5.60;;;1.23;;
51971;SDS011;37991;49.662;10.060;2022-10-22T14:38:12;1.38;;;0.80;;
51971;SDS011;37991;49.662;10.060;2022-10-22T14:40:37;2.10;;;1.00;;
51971;SDS011;37991;49.662;10.060;2022-10-22T14:43:04;3.88;;;0.93;;
51971;SDS011;37991;49.662;10.060;2022-10-22T14:45:29;2.05;;;0.47;;
51971;SDS011;37991;49.662;10.060;2022-10-22T14:47:55;1.17;;;0.70;;
51971;SDS011;37991;49.662;10.060;2022-10-22T14:50:21;1.33;;;0.82;;
51971;SDS011;37991;49.662;10.060;2022-10-22T14:52:48;0.82;;;0.50;;
51971;SDS011;37991;49.662;10.060;2022-10-22T14:55:14;1.95;;;0.50;;
51971;SDS011;37991;49.662;10.060;2022-10-22T14:57:41;1.88;;;0.73;;
51971;SDS011;37991;49.662;10.060;2022-10-22T15:00:08;1.63;;;0.60;;
51971;SDS011;37991;49.662;10.060;2022-10-22T15:02:36;3.63;;;0.60;;
51971;SDS011;37991;49.662;10.060;2022-10-22T15:05:01;1.85;;;0.68;;
51971;SDS011;37991;49.662;10.060;2022-10-22T15:07:27;3.60;;;0.85;;
51971;SDS011;37991;49.662;10.060;2022-10-22T15:09:52;2.00;;;0.70;;
51971;SDS011;37991;49.662;10.060;2022-10-22T15:12:18;0.85;;;0.40;;
51971;SDS011;37991;49.662;10.060;2022-10-22T15:14:45;9.25;;;0.52;;
51971;SDS011;37991;49.662;10.060;2022-10-22T15:17:11;2.45;;;0.60;;
51971;SDS011;37991;49.662;10.060;2022-10-22T15:19:36;0.57;;;0.40;;
51971;SDS011;37991;49.662;10.060;2022-10-22T15:22:02;0.77;;;0.63;;
51971;SDS011;37991;49.662;10.060;2022-10-22T15:24:28;0.77;;;0.40;;
51971;SDS011;37991;49.662;10.060;2022-10-22T15:26:53;5.82;;;0.75;;
51971;SDS011;37991;49.662;10.060;2022-10-22T15:29:19;4.28;;;0.90;;
51971;SDS011;37991;49.662;10.060;2022-10-22T15:34:10;11.13;;;0.98;;
51971;SDS011;37991;49.662;10.060;2022-10-22T15:36:35;4.60;;;0.75;;
51971;SDS011;37991;49.662;10.060;2022-10-22T15:39:07;3.53;;;0.60;;
51971;SDS011;37991;49.662;10.060;2022-10-22T15:41:34;1.50;;;0.57;;
51971;SDS011;37991;49.662;10.060;2022-10-22T15:44:00;0.82;;;0.80;;
51971;SDS011;37991;49.662;10.060;2022-10-22T15:46:26;5.70;;;0.80;;
51971;SDS011;37991;49.662;10.060;2022-10-22T15:48:53;2.83;;;0.52;;
51971;SDS011;37991;49.662;10.060;2022-10-22T15:51:18;4.40;;;0.80;;
51971;SDS011;37991;49.662;10.060;2022-10-22T15:53:49;3.22;;;1.50;;
51971;SDS011;37991;49.662;10.060;2022-10-22T15:56:16;2.85;;;1.27;;
51971;SDS011;37991;49.662;10.060;2022-10-22T15:58:41;3.28;;;1.52;;
51971;SDS011;37991;49.662;10.060;2022-10-22T16:01:08;5.57;;;0.80;;
51971;SDS011;37991;49.662;10.060;2022-10-22T16:03:35;3.47;;;1.02;;
51971;SDS011;37991;49.662;10.060;2022-10-22T16:06:01;4.13;;;1.48;;
51971;SDS011;37991;49.662;10.060;2022-10-22T16:08:27;5.43;;;1.00;;
51971;SDS011;37991;49.662;10.060;2022-10-22T16:10:52;3.53;;;0.75;;
51971;SDS011;37991;49.662;10.060;2022-10-22T16:13:18;2.88;;;0.63;;
51971;SDS011;37991;49.662;10.060;2022-10-22T16:15:45;4.15;;;0.77;;
51971;SDS011;37991;49.662;10.060;2022-10-22T16:18:11;3.80;;;0.80;;
51971;SDS011;37991;49.662;10.060;2022-10-22T16:20:39;3.85;;;0.88;;
51971;SDS011;37991;49.662;10.060;2022-10-22T16:23:05;3.78;;;0.93;;
51971;SDS011;37991;49.662;10.060;2022-10-22T16:25:40;4.10;;;0.63;;
51971;SDS011;37991;49.662;10.060;2022-10-22T16:28:06;3.92;;;1.02;;
51971;SDS011;37991;49.662;10.060;2022-10-22T16:30:32;7.03;;;1.10;;